Time;durP1;ratioP1;P1;durP2;ratioP2;P2;SDS_P1;SDS_P2;PMS_P1;PMS_P2;Temp;Humidity;BMP_temperature;BMP_pressure;BME280_temperature;BME280_humidity;BME280_pressure;Samples;Min_cycle;Max_cycle;Signal;HPM_P1;HPM_P2
2022/10/28 00:01:21;;;;;;;16.33;13.60;;;;;;;188.01;100.00;60274.75;6257556;28;20590;-41
2022/10/28 00:04:25;;;;;;;16.90;14.47;;;;;;;-144.22;100.00;60274.75;6257659;28;20359;-41
2022/10/28 00:07:28;;;;;;;17.30;14.40;;;;;;;-144.22;100.00;60274.75;6257172;28;20241;-41
2022/10/28 00:10:32;;;;;;;16.63;14.30;;;;;;;-144.22;100.00;60274.75;6256867;28;20235;-41
2022/10/28 00:13:35;;;;;;;14.70;13.20;;;;;;;-144.22;100.00;60274.75;6257261;28;20231;-41
2022/10/28 00:16:38;;;;;;;17.30;14.67;;;;;;;-144.22;100.00;60274.75;6256233;28;20238;-40
2022/10/28 00:19:40;;;;;;;16.07;14.00;;;;;;;-144.22;100.00;60274.75;6256759;28;20243;-41
2022/10/28 00:22:42;;;;;;;19.73;15.57;;;;;;;-144.22;100.00;60274.75;6255905;28;20237;-41
2022/10/28 00:25:44;;;;;;;15.87;13.37;;;;;;;-144.22;100.00;60274.75;6256951;28;20280;-40
2022/10/28 00:28:51;;;;;;;14.17;12.73;;;;;;;10.98;100.00;60274.75;6256238;28;20982;-40
2022/10/28 00:31:54;;;;;;;13.30;11.57;;;;;;;-144.22;100.00;60274.75;6256360;28;20388;-40
2022/10/28 00:34:57;;;;;;;17.23;15.10;;;;;;;-144.22;100.00;60274.75;6256430;28;20235;-41
2022/10/28 00:37:59;;;;;;;13.73;12.30;;;;;;;-144.22;100.00;60274.75;6256558;28;20291;-41
2022/10/28 00:41:01;;;;;;;13.97;12.53;;;;;;;-144.22;100.00;60274.75;6255150;28;20321;-40
2022/10/28 00:44:40;;;;;;;15.83;13.97;;;;;;;-144.22;100.00;60274.75;6256719;28;20232;-40
2022/10/28 00:47:54;;;;;;;14.37;12.60;;;;;;;-144.22;100.00;60274.75;6256274;28;20234;-41
2022/10/28 00:50:58;;;;;;;14.70;12.43;;;;;;;-144.22;100.00;60274.75;6255978;28;20226;-41
2022/10/28 00:54:01;;;;;;;15.63;13.20;;;;;;;-144.22;100.00;60274.75;6233769;28;20246;-42
2022/10/28 00:57:10;;;;;;;14.53;12.60;;;;;;;-144.22;100.00;60274.75;6240018;28;20284;-42
2022/10/28 01:00:13;;;;;;;13.10;11.13;;;;;;;-144.22;100.00;60274.75;6255768;28;20208;-42
2022/10/28 01:03:16;;;;;;;12.33;10.87;;;;;;;-144.22;100.00;60274.75;6255584;28;20211;-41
2022/10/28 01:06:19;;;;;;;11.57;10.20;;;;;;;-144.22;100.00;60274.75;6255572;28;20760;-41
2022/10/28 01:09:21;;;;;;;13.33;11.63;;;;;;;-144.22;100.00;60274.75;6255404;28;20238;-41
2022/10/28 01:13:00;;;;;;;13.17;10.73;;;;;;;-144.22;100.00;60274.75;6255377;28;20258;-41
2022/10/28 01:16:24;;;;;;;13.50;11.33;;;;;;;-144.22;100.00;60274.75;6255368;28;20241;-41
2022/10/28 01:19:50;;;;;;;14.73;11.53;;;;;;;-144.22;100.00;60274.75;6255967;28;20246;-41
2022/10/28 01:23:21;;;;;;;12.13;10.90;;;;;;;-144.22;100.00;60274.75;6254997;28;20232;-40
2022/10/28 01:26:31;;;;;;;12.93;10.70;;;;;;;-144.22;100.00;60274.75;6255600;28;20245;-41
2022/10/28 01:30:05;;;;;;;12.27;10.90;;;;;;;-144.22;100.00;60274.75;6255597;28;20730;-41
2022/10/28 01:33:26;;;;;;;13.93;12.43;;;;;;;-144.22;100.00;60274.75;6250607;28;20242;-41
2022/10/28 01:37:17;;;;;;;15.50;12.67;;;;;;;-144.22;100.00;60274.75;6254982;28;20317;-41
2022/10/28 01:40:51;;;;;;;14.07;12.00;;;;;;;-144.22;100.00;60274.75;6154759;28;20234;-41
2022/10/28 01:44:29;;;;;;;15.70;12.53;;;;;;;-144.22;100.00;60274.75;6141500;28;20232;-40
2022/10/28 01:47:42;;;;;;;16.87;14.07;;;;;;;-144.22;100.00;60274.75;6154042;28;20238;-40
2022/10/28 01:50:59;;;;;;;14.77;12.43;;;;;;;10.87;100.00;60274.75;6153603;28;20320;-40
2022/10/28 01:54:05;;;;;;;15.50;13.77;;;;;;;-144.22;100.00;60274.75;6154003;28;20285;-40
2022/10/28 01:57:09;;;;;;;29.70;16.13;;;;;;;-144.22;100.00;60274.75;6154595;28;20688;-40
2022/10/28 02:00:12;;;;;;;16.17;13.97;;;;;;;-144.22;100.00;60274.75;6154775;28;20253;-41
2022/10/28 02:03:15;;;;;;;18.87;14.43;;;;;;;-144.22;100.00;60274.75;6140648;28;20231;-40
2022/10/28 02:06:24;;;;;;;21.00;13.97;;;;;;;-144.22;100.00;60274.75;6154704;28;20254;-41
2022/10/28 02:09:47;;;;;;;16.87;13.87;;;;;;;-144.22;100.00;60274.75;6153803;28;20232;-40
2022/10/28 02:12:55;;;;;;;14.83;12.90;;;;;;;10.42;100.00;60274.75;6153192;28;20320;-40
2022/10/28 02:16:29;;;;;;;15.00;13.33;;;;;;;-144.22;100.00;60274.75;6172519;28;20253;-41
2022/10/28 02:19:52;;;;;;;15.43;13.30;;;;;;;10.33;100.00;60274.75;6254283;28;20325;-41
2022/10/28 02:23:12;;;;;;;19.30;13.00;;;;;;;-144.22;100.00;60274.75;6254093;28;20249;-41
2022/10/28 02:26:33;;;;;;;21.93;15.30;;;;;;;11.36;100.00;60274.75;6254131;28;20265;-40
2022/10/28 02:29:44;;;;;;;16.67;13.27;;;;;;;-144.22;100.00;60274.75;6254044;28;20246;-40
2022/10/28 02:32:51;;;;;;;17.17;14.53;;;;;;;-144.22;100.00;60274.75;6269093;28;20321;-41
2022/10/28 02:36:00;;;;;;;16.70;13.43;;;;;;;11.36;100.00;60274.75;6254655;28;20230;-41
2022/10/28 02:39:05;;;;;;;17.60;14.37;;;;;;;10.26;100.00;60274.75;6253302;28;20229;-41
2022/10/28 02:42:20;;;;;;;15.30;12.93;;;;;;;-144.22;100.00;60274.75;6254047;28;20615;-40
2022/10/28 02:45:31;;;;;;;28.47;14.47;;;;;;;-144.22;100.00;60274.75;6253667;28;20246;-41
2022/10/28 02:48:53;;;;;;;15.23;12.60;;;;;;;-144.22;100.00;60274.75;6253513;28;20350;-42
2022/10/28 02:52:01;;;;;;;16.20;12.83;;;;;;;-144.22;100.00;60274.75;6236400;28;20780;-41
2022/10/28 02:55:05;;;;;;;15.93;12.70;;;;;;;-144.22;100.00;60274.75;6253584;28;20238;-42
2022/10/28 02:58:08;;;;;;;24.43;14.93;;;;;;;-144.22;100.00;60274.75;6236360;28;20551;-40
2022/10/28 03:01:10;;;;;;;15.73;12.50;;;;;;;10.29;100.00;60274.75;6253067;28;20241;-41
2022/10/28 03:04:13;;;;;;;16.03;13.17;;;;;;;-144.22;100.00;60274.75;6254109;28;20222;-41
2022/10/28 03:07:15;;;;;;;22.17;15.17;;;;;;;-144.22;100.00;60274.75;6253067;28;20332;-41
2022/10/28 03:10:17;;;;;;;42.73;15.23;;;;;;;-144.22;100.00;60274.75;6253501;28;20266;-42
2022/10/28 03:13:19;;;;;;;22.07;14.17;;;;;;;-144.22;100.00;60274.75;6254062;28;20230;-42
2022/10/28 03:16:21;;;;;;;15.63;13.97;;;;;;;11.36;100.00;60274.75;6258112;28;20257;-40
2022/10/28 03:19:23;;;;;;;26.53;13.37;;;;;;;-144.22;100.00;60274.75;6258657;28;20268;-42
2022/10/28 03:22:26;;;;;;;33.33;14.80;;;;;;;10.23;100.00;60274.75;6258137;28;20237;-41
2022/10/28 03:25:28;;;;;;;16.23;13.43;;;;;;;-144.22;100.00;60274.75;6258366;28;20269;-41
2022/10/28 03:28:30;;;;;;;17.03;12.90;;;;;;;188.01;100.00;60274.75;6258580;28;20291;-41
2022/10/28 03:31:32;;;;;;;12.50;11.20;;;;;;;-144.22;100.00;60274.75;6258330;28;20313;-42
2022/10/28 03:34:34;;;;;;;26.07;14.60;;;;;;;-144.22;100.00;60274.75;6258509;28;20232;-41
2022/10/28 03:37:36;;;;;;;15.90;13.00;;;;;;;-144.22;100.00;60274.75;6257364;28;20233;-40
2022/10/28 03:40:38;;;;;;;14.13;12.40;;;;;;;-144.22;100.00;60274.75;6257652;28;20399;-43
2022/10/28 03:43:40;;;;;;;41.00;15.10;;;;;;;-144.22;100.00;60274.75;6258097;28;20774;-40
2022/10/28 03:46:42;;;;;;;18.63;13.30;;;;;;;-144.22;100.00;60274.75;6258069;28;20242;-40
2022/10/28 03:49:44;;;;;;;16.20;12.67;;;;;;;10.39;100.00;60274.75;6258147;28;20260;-41
2022/10/28 03:52:47;;;;;;;13.67;11.13;;;;;;;-144.22;100.00;60274.75;6256779;28;20232;-42
2022/10/28 03:55:57;;;;;;;10.90;9.77;;;;;;;-144.22;100.00;60274.75;6256973;28;20352;-40
2022/10/28 03:58:59;;;;;;;13.43;11.63;;;;;;;10.22;100.00;60274.75;6257759;28;20230;-41
2022/10/28 04:02:02;;;;;;;14.60;12.17;;;;;;;-144.22;100.00;60274.75;6257162;28;20284;-40
2022/10/28 04:05:04;;;;;;;12.47;10.83;;;;;;;10.21;100.00;60274.75;6257086;28;20233;-41
2022/10/28 04:08:06;;;;;;;15.50;11.77;;;;;;;-144.22;100.00;60274.75;6255973;28;20703;-41
2022/10/28 04:11:08;;;;;;;11.70;10.43;;;;;;;-144.22;100.00;60274.75;6257376;28;20254;-41
2022/10/28 04:14:11;;;;;;;11.63;10.00;;;;;;;11.36;100.00;60274.75;6256755;28;20243;-41
2022/10/28 04:17:13;;;;;;;15.90;13.20;;;;;;;10.22;100.00;60274.75;6256996;28;20307;-40
2022/10/28 04:20:15;;;;;;;13.03;10.70;;;;;;;-144.22;100.00;60274.75;6256818;28;20317;-40
2022/10/28 04:23:18;;;;;;;20.40;10.90;;;;;;;11.36;100.00;60274.75;6257358;28;20233;-40
2022/10/28 04:26:20;;;;;;;12.97;10.43;;;;;;;-144.22;100.00;60274.75;6255273;28;20241;-40
2022/10/28 04:29:22;;;;;;;13.63;11.20;;;;;;;10.39;100.00;60274.75;6256007;28;20668;-41
2022/10/28 04:32:24;;;;;;;11.77;10.07;;;;;;;10.21;100.00;60274.75;6256472;28;20650;-40
2022/10/28 04:35:26;;;;;;;11.87;10.13;;;;;;;-144.22;100.00;60274.75;6256344;28;20712;-40
2022/10/28 04:38:28;;;;;;;11.63;9.77;;;;;;;-144.22;100.00;60274.75;6256441;28;20239;-40
2022/10/28 04:41:30;;;;;;;13.27;11.10;;;;;;;-144.22;100.00;60274.75;6256607;28;20241;-40
2022/10/28 04:44:33;;;;;;;12.10;10.80;;;;;;;-144.22;100.00;60274.75;6255895;28;20655;-41
2022/10/28 04:47:35;;;;;;;15.77;12.40;;;;;;;-144.22;100.00;60274.75;6256447;28;20233;-40
2022/10/28 04:50:37;;;;;;;12.43;10.30;;;;;;;-144.22;100.00;60274.75;6256066;28;20598;-40
2022/10/28 04:53:44;;;;;;;12.07;10.00;;;;;;;-144.22;100.00;60274.75;6255525;28;20252;-41
2022/10/28 04:56:46;;;;;;;11.30;9.77;;;;;;;-144.22;100.00;60274.75;6231365;28;20283;-40
2022/10/28 04:59:48;;;;;;;10.97;9.83;;;;;;;-144.22;100.00;60274.75;6252608;28;20591;-40
2022/10/28 05:02:50;;;;;;;10.43;8.93;;;;;;;188.01;100.00;60274.75;6255160;28;20334;-40
2022/10/28 05:05:53;;;;;;;9.97;8.67;;;;;;;-144.22;100.00;60274.75;6256637;28;20233;-40
2022/10/28 05:08:55;;;;;;;10.90;9.33;;;;;;;10.25;100.00;60274.75;6255424;28;20277;-40
2022/10/28 05:11:57;;;;;;;10.10;8.37;;;;;;;-144.22;100.00;60274.75;6255533;28;20374;-40
2022/10/28 05:14:59;;;;;;;8.77;7.87;;;;;;;10.21;100.00;79111.41;6255531;28;20233;-41
2022/10/28 05:18:01;;;;;;;10.47;8.80;;;;;;;-144.22;100.00;60274.75;6255117;28;20233;-40
2022/10/28 05:21:04;;;;;;;8.83;7.90;;;;;;;10.23;100.00;60274.75;6255519;28;20532;-40
2022/10/28 05:24:06;;;;;;;11.87;8.70;;;;;;;-144.22;100.00;60274.75;6237869;28;20701;-40
2022/10/28 05:27:09;;;;;;;11.67;10.43;;;;;;;10.21;100.00;60274.75;6255551;28;20229;-40
2022/10/28 05:30:13;;;;;;;10.47;9.33;;;;;;;-144.22;100.00;60274.75;6254957;28;20257;-40
2022/10/28 05:33:15;;;;;;;11.17;9.40;;;;;;;11.36;100.00;60274.75;6254659;28;20218;-40
2022/10/28 05:36:18;;;;;;;12.57;10.73;;;;;;;-144.22;100.00;60274.75;6255028;28;20242;-40
2022/10/28 05:39:21;;;;;;;11.33;8.97;;;;;;;-144.22;100.00;60274.75;6253261;28;20225;-40
2022/10/28 05:42:24;;;;;;;10.43;9.03;;;;;;;10.39;100.00;60274.75;6254869;28;20288;-41
2022/10/28 05:45:27;;;;;;;15.50;11.33;;;;;;;11.36;100.00;60274.75;6236834;28;20233;-40
2022/10/28 05:48:34;;;;;;;12.50;9.83;;;;;;;-144.22;100.00;60274.75;6256035;28;20240;-40
2022/10/28 05:51:36;;;;;;;13.77;9.80;;;;;;;11.36;100.00;60274.75;6254695;28;20590;-41
2022/10/28 05:54:38;;;;;;;9.70;8.20;;;;;;;-144.22;100.00;60274.75;6254373;28;20254;-41
2022/10/28 05:57:41;;;;;;;11.03;8.33;;;;;;;188.01;100.00;60274.75;6253979;28;20234;-40
2022/10/28 06:00:44;;;;;;;11.40;9.37;;;;;;;-144.22;100.00;60274.75;6256499;28;20310;-42
2022/10/28 06:03:46;;;;;;;12.43;9.40;;;;;;;-144.22;100.00;60274.75;6253907;28;20230;-41
2022/10/28 06:06:49;;;;;;;9.70;8.70;;;;;;;10.19;100.00;79108.34;6253473;28;20233;-41
2022/10/28 06:09:53;;;;;;;11.33;9.67;;;;;;;10.22;100.00;60274.75;6253703;28;20227;-40
2022/10/28 06:12:56;;;;;;;9.00;8.10;;;;;;;10.71;100.00;60274.75;6254130;28;20248;-40
2022/10/28 06:16:03;;;;;;;10.27;8.37;;;;;;;-144.22;100.00;60274.75;6253718;28;20565;-40
2022/10/28 06:19:05;;;;;;;12.37;9.90;;;;;;;10.26;100.00;60274.75;6254886;28;20231;-40
2022/10/28 06:22:07;;;;;;;8.73;7.53;;;;;;;11.36;100.00;60274.75;6253537;28;20708;-40
2022/10/28 06:25:09;;;;;;;11.93;8.90;;;;;;;10.26;100.00;60274.75;6253386;28;20316;-40
2022/10/28 06:28:12;;;;;;;13.47;11.10;;;;;;;-144.22;100.00;60274.75;6253310;28;20729;-40
2022/10/28 06:31:14;;;;;;;11.30;9.87;;;;;;;-144.22;100.00;60274.75;6253719;28;20727;-40
2022/10/28 06:34:16;;;;;;;12.87;9.93;;;;;;;10.27;100.00;60274.75;6235193;28;20251;-40
2022/10/28 06:37:19;;;;;;;10.53;8.67;;;;;;;-144.22;100.00;60274.75;6253657;28;20705;-40
2022/10/28 06:40:22;;;;;;;10.20;9.10;;;;;;;-144.22;100.00;60274.75;6253233;28;20327;-41
2022/10/28 06:43:26;;;;;;;10.93;9.77;;;;;;;10.31;100.00;60274.75;6252782;28;20263;-41
2022/10/28 06:46:30;;;;;;;11.73;10.33;;;;;;;10.33;100.00;60274.75;6252729;28;20298;-41
2022/10/28 06:49:32;;;;;;;12.23;10.30;;;;;;;-144.22;100.00;60274.75;6234969;28;20250;-40
2022/10/28 06:52:40;;;;;;;10.33;9.23;;;;;;;-144.22;100.00;60274.75;6242358;28;20274;-42
2022/10/28 06:55:56;;;;;;;12.47;10.40;;;;;;;-144.22;100.00;60274.75;6252472;28;20238;-41
2022/10/28 06:58:58;;;;;;;14.20;10.90;;;;;;;-144.22;100.00;60274.75;6252124;28;20226;-40
2022/10/28 07:02:01;;;;;;;12.90;10.77;;;;;;;10.35;100.00;60274.75;6252996;28;20233;-40
2022/10/28 07:05:04;;;;;;;12.63;10.47;;;;;;;-144.22;100.00;60274.75;6253260;28;20233;-41
2022/10/28 07:08:07;;;;;;;12.07;9.67;;;;;;;10.42;100.00;60274.75;6253341;28;20291;-41
2022/10/28 07:11:10;;;;;;;10.33;8.63;;;;;;;-144.22;100.00;60274.75;6250357;28;20221;-41
2022/10/28 07:14:12;;;;;;;10.73;9.23;;;;;;;-144.22;100.00;60274.75;6252049;28;20266;-42
2022/10/28 07:17:14;;;;;;;12.03;9.60;;;;;;;-144.22;100.00;60274.75;6251918;28;20244;-40
2022/10/28 07:20:17;;;;;;;11.40;9.77;;;;;;;-144.22;100.00;60274.75;6252015;28;20245;-40
2022/10/28 07:23:19;;;;;;;16.43;10.87;;;;;;;10.45;100.00;60274.75;6251040;28;20582;-41
2022/10/28 07:26:22;;;;;;;10.87;9.23;;;;;;;-144.22;100.00;60274.75;6251367;28;20248;-41
2022/10/28 07:29:24;;;;;;;12.13;9.90;;;;;;;-144.22;100.00;60274.75;6252567;28;20741;-41
2022/10/28 07:32:31;;;;;;;13.37;11.77;;;;;;;10.49;100.00;60274.75;6234812;28;20280;-41
2022/10/28 07:35:33;;;;;;;9.83;8.83;;;;;;;-144.22;100.00;60274.75;6251069;28;20238;-42
2022/10/28 07:38:36;;;;;;;12.07;9.67;;;;;;;-144.22;100.00;60274.75;6252578;28;20244;-40
2022/10/28 07:41:40;;;;;;;11.50;10.30;;;;;;;-144.22;100.00;60274.75;6234845;28;20238;-40
2022/10/28 07:44:45;;;;;;;13.53;9.60;;;;;;;-144.22;100.00;60274.75;6251716;28;20313;-40
2022/10/28 07:47:48;;;;;;;12.07;10.17;;;;;;;-144.22;100.00;60274.75;6251635;28;20576;-41
2022/10/28 07:50:51;;;;;;;15.43;11.13;;;;;;;10.69;100.00;60274.75;6252212;28;20573;-40
2022/10/28 07:53:56;;;;;;;12.43;10.60;;;;;;;-144.22;100.00;60274.75;6252758;28;20345;-40
2022/10/28 07:57:01;;;;;;;10.93;9.80;;;;;;;-144.22;100.00;60274.75;6252982;28;20211;-40
2022/10/28 08:00:06;;;;;;;11.93;9.33;;;;;;;-144.22;100.00;60274.75;6251918;28;20602;-41
2022/10/28 08:03:13;;;;;;;11.90;10.23;;;;;;;-144.22;100.00;60274.75;6249954;28;20235;-41
2022/10/28 08:06:18;;;;;;;12.77;9.57;;;;;;;-144.22;100.00;60274.75;6257076;28;20214;-41
2022/10/28 08:09:21;;;;;;;9.67;8.67;;;;;;;10.55;100.00;60274.75;6239429;28;20234;-41
2022/10/28 08:12:29;;;;;;;10.33;8.87;;;;;;;188.01;100.00;60274.75;6240449;28;20250;-40
2022/10/28 08:15:32;;;;;;;10.67;8.43;;;;;;;188.01;100.00;60274.75;6255533;28;20248;-40
2022/10/28 08:18:37;;;;;;;11.00;9.20;;;;;;;-144.22;100.00;60274.75;6256656;28;20258;-41
2022/10/28 08:21:42;;;;;;;9.47;8.03;;;;;;;-144.22;100.00;60274.75;6256251;28;20233;-40
2022/10/28 08:24:45;;;;;;;10.17;8.67;;;;;;;-144.22;100.00;60274.75;6257535;28;20591;-40
2022/10/28 08:27:49;;;;;;;10.63;8.73;;;;;;;-144.22;100.00;60274.75;6256851;28;20243;-41
2022/10/28 08:30:53;;;;;;;9.77;8.73;;;;;;;-144.22;100.00;60274.75;6256226;28;20272;-40
2022/10/28 08:34:12;;;;;;;11.40;9.50;;;;;;;-144.22;100.00;60274.75;6256155;28;20253;-41
2022/10/28 08:37:15;;;;;;;11.43;10.20;;;;;;;-144.22;100.00;60274.75;6255899;28;20234;-41
2022/10/28 08:40:24;;;;;;;11.33;9.40;;;;;;;-144.22;100.00;60274.75;6255186;28;20665;-41
2022/10/28 08:43:43;;;;;;;12.97;10.63;;;;;;;-144.22;100.00;60274.75;6255646;28;20692;-40
2022/10/28 08:47:35;;;;;;;10.40;9.00;;;;;;;188.01;100.00;60274.75;6255543;28;20238;-41
2022/10/28 08:50:49;;;;;;;9.80;8.70;;;;;;;-144.22;100.00;60274.75;6255209;28;20237;-41
2022/10/28 08:54:06;;;;;;;10.43;8.80;;;;;;;-144.22;100.00;60274.75;6255805;28;20245;-41
2022/10/28 08:57:17;;;;;;;9.57;8.53;;;;;;;16.55;100.00;60274.75;6255522;28;20590;-41
2022/10/28 09:00:27;;;;;;;9.67;8.20;;;;;;;-144.22;100.00;60274.75;6254556;28;20841;-41
2022/10/28 09:03:39;;;;;;;11.67;9.63;;;;;;;-144.22;100.00;60274.75;6246107;28;20321;-40
2022/10/28 09:06:41;;;;;;;8.70;7.50;;;;;;;-144.22;100.00;60274.75;6255474;28;20246;-41
2022/10/28 09:09:45;;;;;;;8.40;7.53;;;;;;;188.01;100.00;60274.75;6254767;28;20776;-41
2022/10/28 09:13:02;;;;;;;8.77;7.87;;;;;;;-144.22;100.00;60274.75;6253961;28;20241;-41
2022/10/28 09:16:22;;;;;;;10.57;8.27;;;;;;;-144.22;100.00;60274.75;6255347;28;20227;-40
2022/10/28 09:19:37;;;;;;;9.27;8.37;;;;;;;-144.22;100.00;60274.75;6254988;28;20235;-41
2022/10/28 09:22:56;;;;;;;8.17;7.37;;;;;;;-144.22;100.00;60274.75;6254409;28;20292;-41
2022/10/28 09:26:07;;;;;;;9.50;7.70;;;;;;;-144.22;100.00;60274.75;6254959;28;20230;-41
2022/10/28 09:29:46;;;;;;;9.37;8.10;;;;;;;-144.22;100.00;60274.75;6254657;28;20251;-40
2022/10/28 09:33:04;;;;;;;9.63;8.40;;;;;;;-144.22;100.00;60274.75;6230283;28;20258;-40
2022/10/28 09:36:17;;;;;;;8.73;7.50;;;;;;;-144.22;100.00;60274.75;6254691;28;20219;-41
2022/10/28 09:39:28;;;;;;;9.47;8.10;;;;;;;-144.22;100.00;60274.75;6253927;28;20577;-41
2022/10/28 09:42:39;;;;;;;10.43;8.93;;;;;;;-144.22;100.00;60274.75;6254107;28;20640;-41
2022/10/28 09:45:49;;;;;;;9.03;8.13;;;;;;;-144.22;100.00;60274.75;6253037;28;20223;-41
2022/10/28 09:48:56;;;;;;;8.03;7.23;;;;;;;-144.22;100.00;60274.75;6253087;28;20242;-42
2022/10/28 09:52:27;;;;;;;9.70;8.70;;;;;;;16.55;100.00;60274.75;6254752;28;20281;-42
2022/10/28 09:55:31;;;;;;;9.53;8.53;;;;;;;-144.22;100.00;60274.75;6250800;28;20602;-41
2022/10/28 09:58:35;;;;;;;9.73;8.63;;;;;;;16.55;100.00;60274.75;6253795;28;20230;-40
2022/10/28 10:01:40;;;;;;;8.33;7.43;;;;;;;-144.22;100.00;60274.75;6253922;28;20245;-41
2022/10/28 10:04:42;;;;;;;8.70;7.60;;;;;;;12.72;100.00;60274.75;6254941;28;20257;-41
2022/10/28 10:07:56;;;;;;;8.13;7.23;;;;;;;-144.22;100.00;60274.75;6253828;28;20697;-41
2022/10/28 10:11:06;;;;;;;8.90;8.00;;;;;;;-144.22;100.00;60274.75;6254202;28;20226;-41
2022/10/28 10:14:12;;;;;;;8.87;7.70;;;;;;;-144.22;100.00;60274.75;6253281;28;20243;-41
2022/10/28 10:17:20;;;;;;;8.93;7.43;;;;;;;13.02;100.00;60274.75;6253805;28;20231;-40
2022/10/28 10:20:23;;;;;;;7.93;7.13;;;;;;;-144.22;100.00;60274.75;6253916;28;20701;-41
2022/10/28 10:23:36;;;;;;;9.67;7.80;;;;;;;-144.22;100.00;60274.75;6253134;28;20234;-40
2022/10/28 10:26:44;;;;;;;9.03;7.80;;;;;;;-144.22;100.00;60274.75;6253773;28;20326;-41
2022/10/28 10:29:50;;;;;;;7.97;7.17;;;;;;;-144.22;100.00;60274.75;6254424;28;20234;-41
2022/10/28 10:32:53;;;;;;;9.07;7.40;;;;;;;-144.22;100.00;60274.75;6253191;28;20227;-40
2022/10/28 10:36:16;;;;;;;6.90;6.20;;;;;;;-144.22;100.00;60274.75;6252084;28;20239;-40
2022/10/28 10:39:26;;;;;;;7.87;6.43;;;;;;;-144.22;100.00;60274.75;6253369;28;20216;-42
2022/10/28 10:42:28;;;;;;;8.50;6.93;;;;;;;-144.22;100.00;60274.75;6252492;28;20230;-41
2022/10/28 10:45:34;;;;;;;7.70;6.97;;;;;;;-144.22;100.00;60274.75;6252515;28;20225;-41
2022/10/28 10:48:36;;;;;;;9.33;7.97;;;;;;;-144.22;100.00;60274.75;6253439;28;20250;-41
2022/10/28 10:51:40;;;;;;;7.30;6.60;;;;;;;-144.22;100.00;60274.75;6253081;28;20246;-41
2022/10/28 10:54:56;;;;;;;8.37;7.47;;;;;;;-144.22;100.00;60274.75;6252397;28;20230;-40
2022/10/28 10:57:59;;;;;;;10.37;8.27;;;;;;;-144.22;100.00;60274.75;6235770;28;20231;-40
2022/10/28 11:01:04;;;;;;;8.37;7.10;;;;;;;-144.22;100.00;60274.75;6253442;28;20231;-41
2022/10/28 11:04:14;;;;;;;7.13;6.43;;;;;;;-144.22;100.00;60274.75;6252784;28;20234;-40
2022/10/28 11:07:17;;;;;;;9.87;6.27;;;;;;;-144.22;100.00;60274.75;6252613;28;20237;-41
2022/10/28 11:10:26;;;;;;;6.60;5.90;;;;;;;-144.22;100.00;60274.75;6267432;28;20238;-42
2022/10/28 11:13:29;;;;;;;7.90;7.10;;;;;;;-144.22;100.00;60274.75;6252233;28;20231;-41
2022/10/28 11:16:32;;;;;;;7.90;7.10;;;;;;;-144.22;100.00;60274.75;6267958;28;20239;-42
2022/10/28 11:19:37;;;;;;;7.83;7.03;;;;;;;-144.22;100.00;60274.75;6252709;28;20235;-42
2022/10/28 11:23:17;;;;;;;9.37;7.50;;;;;;;-144.22;100.00;60274.75;6251968;28;20231;-42
2022/10/28 11:26:25;;;;;;;9.30;8.30;;;;;;;-144.22;100.00;60274.75;6235180;28;20231;-41
2022/10/28 11:29:31;;;;;;;11.30;9.50;;;;;;;-144.22;100.00;60274.75;6251906;28;20600;-42
2022/10/28 11:32:39;;;;;;;11.37;10.03;;;;;;;-144.22;100.00;60274.75;6254443;28;20279;-40
2022/10/28 11:36:29;;;;;;;10.47;9.20;;;;;;;-144.22;100.00;60274.75;6254446;28;20240;-41
2022/10/28 11:39:36;;;;;;;13.73;10.93;;;;;;;-144.22;100.00;60274.75;6258477;28;20686;-42
2022/10/28 11:43:02;;;;;;;12.23;10.70;;;;;;;-144.22;100.00;60274.75;6257315;28;20235;-41
2022/10/28 11:46:12;;;;;;;11.40;10.20;;;;;;;-144.22;100.00;60274.75;6255519;28;20284;-41
2022/10/28 11:49:49;;;;;;;11.80;9.33;;;;;;;-144.22;100.00;60274.75;6256443;28;20729;-41
2022/10/28 11:53:16;;;;;;;10.07;8.40;;;;;;;-144.22;100.00;60274.75;6256511;28;20242;-41
2022/10/28 11:56:55;;;;;;;11.67;9.40;;;;;;;-144.22;100.00;60274.75;6256937;28;20238;-41
2022/10/28 12:00:22;;;;;;;10.33;9.23;;;;;;;-144.22;100.00;60274.75;6226051;28;20585;-41
2022/10/28 12:03:50;;;;;;;11.27;10.07;;;;;;;-144.22;100.00;60274.75;6253518;28;20246;-41
2022/10/28 12:07:11;;;;;;;13.53;10.67;;;;;;;-144.22;100.00;60274.75;6260551;28;20223;-40
2022/10/28 12:10:18;;;;;;;12.27;10.17;;;;;;;-144.22;100.00;60274.75;6256528;28;20232;-42
2022/10/28 12:13:54;;;;;;;12.23;10.20;;;;;;;-144.22;100.00;60274.75;6256251;28;20227;-43
2022/10/28 12:17:30;;;;;;;10.93;9.57;;;;;;;-144.22;100.00;60274.75;6255942;28;20703;-41
2022/10/28 12:20:53;;;;;;;11.37;9.33;;;;;;;-144.22;100.00;60274.75;6252619;28;20793;-41
2022/10/28 12:23:58;;;;;;;13.37;10.90;;;;;;;-144.22;100.00;60274.75;6238239;28;20250;-42
2022/10/28 12:27:08;;;;;;;13.40;9.80;;;;;;;-144.22;100.00;60274.75;6255043;28;20239;-42
2022/10/28 12:30:23;;;;;;;10.40;9.10;;;;;;;-144.22;100.00;60274.75;6268598;28;20235;-41
2022/10/28 12:33:46;;;;;;;10.93;9.77;;;;;;;-144.22;100.00;60274.75;6255247;28;20305;-40
2022/10/28 12:36:56;;;;;;;11.60;9.87;;;;;;;-144.22;100.00;60274.75;6260816;28;20238;-43
2022/10/28 12:40:16;;;;;;;9.50;8.27;;;;;;;-144.22;100.00;60274.75;6257185;28;20246;-40
2022/10/28 12:43:33;;;;;;;9.77;8.77;;;;;;;-144.22;100.00;60274.75;6255665;28;20314;-41
2022/10/28 12:46:58;;;;;;;10.47;9.17;;;;;;;-144.22;100.00;60274.75;6255689;28;20333;-41
2022/10/28 12:50:07;;;;;;;9.93;8.67;;;;;;;-144.22;100.00;60274.75;6255821;28;20569;-41
2022/10/28 12:53:23;;;;;;;8.83;7.87;;;;;;;-144.22;100.00;60274.75;6255272;28;20314;-41
2022/10/28 12:56:36;;;;;;;10.30;8.40;;;;;;;-144.22;100.00;60274.75;6238017;28;20223;-41
2022/10/28 12:59:55;;;;;;;10.63;9.53;;;;;;;-144.22;100.00;60274.75;6254530;28;20558;-42
2022/10/28 13:03:06;;;;;;;11.47;9.40;;;;;;;-144.22;100.00;60274.75;6249783;28;20255;-41
2022/10/28 13:06:20;;;;;;;9.87;8.63;;;;;;;-144.22;100.00;60274.75;6252256;28;20223;-41
2022/10/28 13:09:38;;;;;;;13.23;9.33;;;;;;;-144.22;100.00;60274.75;6254093;28;20235;-41
2022/10/28 13:12:59;;;;;;;10.93;9.73;;;;;;;-144.22;100.00;60274.75;6253475;28;20293;-40
2022/10/28 13:16:46;;;;;;;9.20;8.20;;;;;;;-144.22;100.00;60274.75;6252897;28;20262;-41
2022/10/28 13:20:01;;;;;;;9.97;8.97;;;;;;;-144.22;100.00;60274.75;6240966;28;20227;-41
2022/10/28 13:23:19;;;;;;;10.63;9.03;;;;;;;-144.22;100.00;60274.75;6253501;28;20316;-41
2022/10/28 13:26:29;;;;;;;10.73;9.07;;;;;;;-144.22;100.00;60274.75;6255088;28;20277;-41
2022/10/28 13:29:33;;;;;;;10.77;9.50;;;;;;;-144.22;100.00;60274.75;6255340;28;20246;-40
2022/10/28 13:32:39;;;;;;;9.57;8.43;;;;;;;-144.22;100.00;60274.75;6254586;28;20285;-40
2022/10/28 13:35:42;;;;;;;9.57;8.57;;;;;;;-144.22;100.00;60274.75;6256967;28;20230;-41
2022/10/28 13:39:03;;;;;;;11.07;9.63;;;;;;;-144.22;100.00;60274.75;6258902;28;20231;-41
2022/10/28 13:42:11;;;;;;;11.30;9.67;;;;;;;-144.22;100.00;60274.75;6254642;28;20219;-41
2022/10/28 13:45:52;;;;;;;10.13;8.67;;;;;;;-144.22;100.00;60274.75;6255169;28;20231;-41
2022/10/28 13:49:40;;;;;;;10.00;8.13;;;;;;;-144.22;100.00;60274.75;6254490;28;20281;-40
2022/10/28 13:52:44;;;;;;;9.50;8.47;;;;;;;-144.22;100.00;60274.75;6231092;28;20256;-43
2022/10/28 13:55:47;;;;;;;9.93;7.90;;;;;;;-144.22;100.00;60274.75;6254521;28;20270;-41
2022/10/28 13:58:54;;;;;;;10.53;8.97;;;;;;;-144.22;100.00;60274.75;6253047;28;20288;-41
2022/10/28 14:02:01;;;;;;;10.93;9.37;;;;;;;-144.22;100.00;60274.75;6259118;28;20231;-41
2022/10/28 14:05:46;;;;;;;10.33;9.23;;;;;;;-144.22;100.00;60274.75;6253787;28;20300;-41
2022/10/28 14:08:48;;;;;;;11.87;10.67;;;;;;;-144.22;100.00;60274.75;6253382;28;20227;-41
2022/10/28 14:12:30;;;;;;;12.97;9.87;;;;;;;-144.22;100.00;60274.75;6254902;28;20227;-41